Aeroporto :
LOGIN :

Iscrizione | Disclaimer

   EN    FR    IT 

 










Sommario :    VFR   VFR Marginale   IFR   IFR Intensivo   IFR Molto Intensivo
Visibilità : 
Base nubi : 
>= 8 km
>= 3000ft
5 / 8 km
1000 / 3000 ft
1500m / 5 km
500 / 1000 ft
800 / 1500m
200 / 500 ft
< 800m
< 200 ft
Simboli :   Temporali  Nebbia  Neve Forte  Precipitazioni Forti  Vento > 20 kt
SIGMETs :   Varie  Temporali  Ghiacco  Turbolenza  Onda orograficha  Ceneri Vulcaniche






- Altitudine del aeroporto : 202 ft
- Codice IATA : LGW


EGKK - London Gatwick

ULTIMO METAR :
  • 261420Z 22015KT 190V250 9999 SCT028 18/10 Q1012

METARs OBSOLETI :
  • 261350Z 22012G22KT 180V250 9999 FEW026 SCT031 18/11 Q1012
  • 261320Z 21011KT 170V240 9999 SCT030 18/10 Q1012
  • 261250Z 21012KT 170V250 9999 SCT031 18/10 Q1012
  • 261220Z 22013KT 9999 SCT031 18/10 Q1012
  • 261150Z 22013KT 180V250 9999 SCT031 18/10 Q1012
  • 261120Z 23011KT 9999 SCT028 17/11 Q1012
  • 261050Z 19011KT 9999 SCT027 17/11 Q1011
  • 261020Z 21009KT 170V240 9999 SCT039 17/12 Q1011
  • 260950Z 22009KT 160V240 9999 SCT018 SCT041 16/11 Q1011

TAF TAF EGKK
Valido dal 26 a 12 ore il 27 a 18 ore UTC


261052Z 2612/2718 22008KT 9999 SCT030
TEMPO 2612/2619 7000 SHRA
PROB30
TEMPO 2612/2617 25015G25KT 3000 +TSRA
PROB30
TEMPO 2709/2718 7000 SHRA



MetMap, La meteo Aeronautica in un colpo d'occhio ! - Copyright ORBIFLY Dicembre 2007 - Disclaimer

ORBIFLY MET'MAP TEAM :

Programmazione e sviluppo : Alexandra Zaïnal
Concezione : Baudouin d'Aumeries
Supporto tecnico e logistico : Manuel Goepfert
Aiuto : Marc-Olivier Méhu
Aiuto per la traduzione : Arnaldo La Scala




FONTI E CREDITI :

   NOAA